Time;durP1;ratioP1;P1;durP2;ratioP2;P2;SDS_P1;SDS_P2;PMS_P1;PMS_P2;Temp;Humidity;BMP_temperature;BMP_pressure;BME280_temperature;BME280_humidity;BME280_pressure;Samples;Min_cycle;Max_cycle;Signal;HPM_P1;HPM_P2
2023/11/16 00:02:12;;;;;;;7.75;1.45;;;10.50;99.90;;;;;;5036499;28;20028;-82
2023/11/16 00:04:39;;;;;;;7.82;1.63;;;10.50;99.90;;;;;;5036810;28;20029;-83
2023/11/16 00:07:06;;;;;;;3.83;1.23;;;10.50;99.90;;;;;;5036316;28;20116;-82
2023/11/16 00:09:35;;;;;;;7.30;1.20;;;10.60;99.90;;;;;;5037079;28;20029;-83
2023/11/16 00:12:02;;;;;;;3.75;1.10;;;10.60;99.90;;;;;;5036200;28;20029;-82
2023/11/16 00:14:28;;;;;;;2.92;0.85;;;10.60;99.90;;;;;;5054212;28;20047;-82
2023/11/16 00:16:57;;;;;;;1.58;0.73;;;10.60;99.90;;;;;;5036296;28;20025;-82
2023/11/16 00:19:23;;;;;;;1.65;0.65;;;10.60;99.90;;;;;;5036745;28;20111;-82
2023/11/16 00:21:52;;;;;;;4.38;1.05;;;10.40;99.90;;;;;;5036531;28;20029;-82
2023/11/16 00:24:19;;;;;;;1.95;0.95;;;10.30;99.90;;;;;;5053556;28;20474;-82
2023/11/16 00:26:45;;;;;;;9.05;0.93;;;10.40;99.90;;;;;;5036443;28;20037;-82
2023/11/16 00:29:12;;;;;;;5.78;0.73;;;10.30;99.90;;;;;;5036283;28;20386;-83
2023/11/16 00:31:38;;;;;;;3.90;0.60;;;10.30;99.90;;;;;;5036907;28;20029;-84
2023/11/16 00:34:05;;;;;;;3.38;0.55;;;10.30;99.90;;;;;;5036473;28;20049;-84
2023/11/16 00:36:31;;;;;;;5.65;0.80;;;10.30;99.90;;;;;;5036798;28;20028;-84
2023/11/16 00:38:58;;;;;;;1.80;0.40;;;10.30;99.90;;;;;;5053570;28;20079;-83
2023/11/16 00:41:24;;;;;;;2.28;0.60;;;10.30;99.90;;;;;;5036619;28;20121;-84
2023/11/16 00:43:50;;;;;;;1.85;0.47;;;10.30;99.90;;;;;;5036753;28;20492;-84
2023/11/16 00:46:16;;;;;;;5.00;0.50;;;10.20;99.90;;;;;;5035979;28;20116;-84
2023/11/16 00:48:43;;;;;;;1.08;0.50;;;10.20;99.90;;;;;;5053542;28;20032;-84
2023/11/16 00:51:12;;;;;;;3.05;0.52;;;10.20;99.90;;;;;;5036127;28;20096;-84
2023/11/16 00:53:44;;;;;;;4.13;0.90;;;10.20;99.90;;;;;;5036711;28;20032;-84
2023/11/16 00:56:10;;;;;;;4.15;0.50;;;10.10;99.90;;;;;;5053846;28;20477;-84
2023/11/16 00:58:39;;;;;;;1.58;0.35;;;10.10;99.90;;;;;;5036226;28;20132;-84
2023/11/16 01:01:09;;;;;;;1.20;0.35;;;10.10;99.90;;;;;;5035717;28;20029;-84
2023/11/16 01:03:36;;;;;;;2.72;0.35;;;10.10;99.90;;;;;;5053737;28;20060;-83
2023/11/16 01:06:02;;;;;;;0.88;0.30;;;10.10;99.90;;;;;;5036042;28;20386;-84
2023/11/16 01:08:33;;;;;;;0.82;0.30;;;10.20;99.90;;;;;;5053729;28;20029;-84
2023/11/16 01:11:09;;;;;;;1.30;0.50;;;10.20;99.90;;;;;;5035936;28;20029;-83
2023/11/16 01:13:41;;;;;;;2.10;0.30;;;10.20;99.90;;;;;;5036192;28;20492;-84
2023/11/16 01:16:15;;;;;;;1.25;0.30;;;10.20;99.90;;;;;;5053428;28;20021;-83
2023/11/16 01:18:46;;;;;;;1.60;0.38;;;10.20;99.90;;;;;;5036239;28;20064;-83
2023/11/16 01:21:15;;;;;;;2.83;0.50;;;10.10;99.90;;;;;;5035571;28;20025;-83
2023/11/16 01:23:41;;;;;;;2.55;0.20;;;10.10;99.90;;;;;;5036582;28;20074;-83
2023/11/16 01:26:17;;;;;;;1.08;0.30;;;10.10;99.90;;;;;;5035143;28;20031;-83
2023/11/16 01:28:46;;;;;;;2.70;0.30;;;10.10;99.90;;;;;;5036000;28;20059;-83
2023/11/16 01:31:13;;;;;;;1.02;0.45;;;10.10;99.90;;;;;;5035502;28;20128;-82
2023/11/16 01:33:39;;;;;;;4.95;0.47;;;10.10;99.90;;;;;;5035698;28;20056;-82
2023/11/16 01:36:05;;;;;;;4.40;0.60;;;10.10;99.90;;;;;;5035442;28;20029;-83
2023/11/16 01:38:31;;;;;;;3.33;0.90;;;10.10;99.90;;;;;;5035909;28;20029;-83
2023/11/16 01:40:57;;;;;;;8.52;0.77;;;10.10;99.90;;;;;;5035999;28;20438;-83
2023/11/16 01:43:23;;;;;;;3.55;0.80;;;10.10;99.90;;;;;;5035710;28;20061;-83
2023/11/16 01:45:49;;;;;;;1.88;0.80;;;10.10;99.90;;;;;;5035950;28;20036;-83
2023/11/16 01:48:24;;;;;;;2.22;0.90;;;10.10;99.90;;;;;;5035263;28;20031;-83
2023/11/16 01:50:51;;;;;;;6.90;1.30;;;10.10;99.90;;;;;;5035850;28;20024;-83
2023/11/16 01:53:18;;;;;;;4.30;1.00;;;10.10;99.90;;;;;;5035314;28;20021;-83
2023/11/16 01:55:47;;;;;;;5.95;1.25;;;10.10;99.90;;;;;;5035882;28;20033;-83
2023/11/16 01:58:14;;;;;;;5.93;1.33;;;10.10;99.90;;;;;;5053138;28;20029;-82
2023/11/16 02:00:42;;;;;;;5.30;1.23;;;10.10;99.90;;;;;;5054752;28;20056;-83
2023/11/16 02:03:09;;;;;;;5.75;1.60;;;10.10;99.90;;;;;;5039316;28;20025;-82
2023/11/16 02:05:36;;;;;;;5.20;1.05;;;10.10;99.90;;;;;;5039306;28;20025;-82
2023/11/16 02:08:09;;;;;;;4.25;1.20;;;10.10;99.90;;;;;;5038895;28;20059;-82
2023/11/16 02:10:37;;;;;;;4.00;1.05;;;10.10;99.90;;;;;;5039218;28;20040;-82
2023/11/16 02:13:04;;;;;;;2.00;0.70;;;10.20;99.90;;;;;;5038789;28;20067;-82
2023/11/16 02:15:31;;;;;;;7.38;1.15;;;10.10;99.90;;;;;;5056683;28;20091;-81
2023/11/16 02:18:01;;;;;;;7.25;1.10;;;10.10;99.90;;;;;;5039564;28;20025;-84
2023/11/16 02:20:28;;;;;;;5.90;1.20;;;10.10;99.90;;;;;;5039362;28;20029;-83
2023/11/16 02:22:55;;;;;;;5.25;1.15;;;10.10;99.90;;;;;;5056781;28;20112;-82
2023/11/16 02:25:21;;;;;;;3.75;1.17;;;10.10;99.90;;;;;;5038851;28;20285;-81
2023/11/16 02:27:47;;;;;;;5.32;1.05;;;10.10;99.90;;;;;;5039346;28;20025;-82
2023/11/16 02:30:13;;;;;;;3.28;1.00;;;10.10;99.90;;;;;;5038383;28;20025;-82
2023/11/16 02:32:39;;;;;;;2.03;0.90;;;10.10;99.90;;;;;;5038399;28;20120;-82
2023/11/16 02:35:05;;;;;;;2.22;0.85;;;10.10;99.90;;;;;;5038887;28;20025;-82
2023/11/16 02:37:30;;;;;;;7.30;1.30;;;10.10;99.90;;;;;;5038708;28;20032;-83
2023/11/16 02:39:56;;;;;;;1.58;0.80;;;10.10;99.90;;;;;;5038895;28;20381;-83
2023/11/16 02:42:22;;;;;;;3.40;0.80;;;10.10;99.90;;;;;;5038117;28;20028;-83
2023/11/16 02:44:48;;;;;;;5.25;1.02;;;10.10;99.90;;;;;;5038607;28;20028;-83
2023/11/16 02:47:13;;;;;;;6.38;1.00;;;10.00;99.90;;;;;;5038229;28;20025;-82
2023/11/16 02:49:39;;;;;;;9.32;1.15;;;10.00;99.90;;;;;;5038862;28;20029;-83
2023/11/16 02:52:05;;;;;;;5.22;1.00;;;10.00;99.90;;;;;;5038009;28;20037;-82
2023/11/16 02:54:31;;;;;;;7.85;1.48;;;9.90;99.90;;;;;;5055879;28;20078;-83
2023/11/16 02:56:56;;;;;;;3.40;0.60;;;9.90;99.90;;;;;;5038600;28;20036;-83
2023/11/16 02:59:22;;;;;;;4.93;0.70;;;9.90;99.90;;;;;;5037974;28;20511;-83
2023/11/16 03:01:48;;;;;;;5.68;0.90;;;10.00;99.90;;;;;;5038822;28;20029;-83
2023/11/16 03:04:13;;;;;;;2.38;0.82;;;10.00;99.90;;;;;;5038155;28;20362;-83
2023/11/16 03:06:39;;;;;;;5.03;0.70;;;10.00;99.90;;;;;;5038494;28;20025;-83
2023/11/16 03:09:05;;;;;;;2.83;0.68;;;10.00;99.90;;;;;;5037884;28;20067;-83
2023/11/16 03:11:35;;;;;;;4.00;0.80;;;10.00;99.90;;;;;;5037801;28;20029;-83
2023/11/16 03:14:01;;;;;;;4.63;0.80;;;10.00;99.90;;;;;;5038299;28;20588;-83
2023/11/16 03:16:27;;;;;;;4.15;1.33;;;9.90;99.90;;;;;;5037682;28;20029;-83
2023/11/16 03:18:52;;;;;;;4.10;0.70;;;10.00;99.90;;;;;;5055708;28;20029;-81
2023/11/16 03:21:18;;;;;;;4.95;1.60;;;10.00;99.90;;;;;;5037498;28;20080;-82
2023/11/16 03:23:44;;;;;;;6.03;1.00;;;10.00;99.90;;;;;;5055739;28;20048;-82
2023/11/16 03:26:10;;;;;;;2.05;0.60;;;10.00;99.90;;;;;;5055136;28;20048;-81
2023/11/16 03:28:36;;;;;;;4.18;0.68;;;10.00;99.90;;;;;;5038192;28;20473;-82
2023/11/16 03:31:05;;;;;;;2.63;0.70;;;10.00;99.90;;;;;;5037954;28;20029;-82
2023/11/16 03:33:34;;;;;;;1.58;0.65;;;9.90;99.90;;;;;;5037819;28;20041;-82
2023/11/16 03:35:59;;;;;;;1.92;0.77;;;9.80;99.90;;;;;;5055544;28;20017;-82
2023/11/16 03:38:26;;;;;;;4.63;1.15;;;9.70;99.90;;;;;;5037480;28;20041;-82
2023/11/16 03:40:52;;;;;;;6.22;1.17;;;9.70;99.90;;;;;;5037912;28;20118;-82
2023/11/16 03:43:18;;;;;;;3.80;0.98;;;9.70;99.90;;;;;;5037566;28;20025;-82
2023/11/16 03:45:43;;;;;;;2.10;0.70;;;9.70;99.90;;;;;;5037778;28;20036;-82
2023/11/16 03:48:11;;;;;;;9.52;0.90;;;9.70;99.90;;;;;;5054880;28;20029;-82
2023/11/16 03:50:39;;;;;;;7.28;1.45;;;9.80;99.90;;;;;;5037426;28;20056;-82
2023/11/16 03:53:06;;;;;;;5.78;1.50;;;9.70;99.90;;;;;;5037452;28;20234;-82
2023/11/16 03:55:32;;;;;;;3.72;1.13;;;9.70;99.90;;;;;;5037367;28;20036;-82
2023/11/16 03:57:57;;;;;;;3.78;1.60;;;9.70;99.90;;;;;;5037379;28;20029;-82
2023/11/16 04:00:25;;;;;;;2.28;0.98;;;9.70;99.90;;;;;;5036891;28;20064;-82
2023/11/16 04:02:51;;;;;;;5.03;1.05;;;9.70;99.90;;;;;;5037312;28;20025;-82
2023/11/16 04:05:18;;;;;;;3.63;1.13;;;9.70;99.90;;;;;;5036571;28;20048;-82
2023/11/16 04:07:44;;;;;;;4.07;0.90;;;9.70;99.90;;;;;;5037383;28;20029;-82
2023/11/16 04:10:12;;;;;;;3.47;1.02;;;9.70;99.90;;;;;;5054123;28;20029;-82
2023/11/16 04:12:40;;;;;;;4.60;0.85;;;9.70;99.90;;;;;;5037293;28;20164;-81
2023/11/16 04:15:08;;;;;;;3.38;1.02;;;9.70;99.90;;;;;;5037473;28;20116;-82
2023/11/16 04:17:34;;;;;;;4.97;0.77;;;9.60;99.90;;;;;;5037592;28;20021;-82
2023/11/16 04:20:01;;;;;;;4.00;0.98;;;9.70;99.90;;;;;;5037086;28;20123;-82
2023/11/16 04:22:28;;;;;;;4.15;0.90;;;9.70;99.90;;;;;;5036417;28;20029;-82
2023/11/16 04:24:54;;;;;;;5.72;1.00;;;9.60;99.90;;;;;;5054054;28;20052;-82
2023/11/16 04:27:20;;;;;;;2.92;1.15;;;9.70;99.90;;;;;;5054022;28;20040;-81
2023/11/16 04:29:46;;;;;;;3.95;0.77;;;9.70;99.90;;;;;;5036919;28;20036;-83
2023/11/16 04:32:12;;;;;;;4.75;1.08;;;9.60;99.90;;;;;;5054136;28;20519;-83
2023/11/16 04:34:38;;;;;;;2.42;0.90;;;9.70;99.90;;;;;;5033081;28;20049;-83
2023/11/16 04:37:04;;;;;;;2.88;0.80;;;9.60;99.90;;;;;;5033429;28;20127;-82
2023/11/16 04:39:30;;;;;;;2.00;0.80;;;9.60;99.90;;;;;;5032848;28;20115;-83
2023/11/16 04:41:56;;;;;;;3.95;0.77;;;9.60;99.90;;;;;;5034343;28;20036;-82
2023/11/16 04:44:21;;;;;;;8.88;1.15;;;9.50;99.90;;;;;;5033024;28;20036;-83
2023/11/16 04:46:48;;;;;;;2.72;0.80;;;9.50;99.90;;;;;;5033492;28;20033;-83
2023/11/16 04:49:16;;;;;;;2.72;0.85;;;9.60;99.90;;;;;;5032547;28;20125;-83
2023/11/16 04:51:43;;;;;;;6.45;0.90;;;9.60;99.90;;;;;;5033184;28;20040;-83
2023/11/16 04:54:09;;;;;;;6.60;1.02;;;9.60;99.90;;;;;;5033165;28;20112;-83
2023/11/16 04:56:36;;;;;;;8.48;1.50;;;9.60;99.90;;;;;;5033179;28;20030;-83
2023/11/16 04:59:03;;;;;;;5.70;1.10;;;9.60;99.90;;;;;;5033175;28;20038;-83
2023/11/16 05:01:29;;;;;;;4.50;1.63;;;9.60;99.90;;;;;;5032868;28;20554;-83
2023/11/16 05:03:54;;;;;;;4.55;1.23;;;9.60;99.90;;;;;;5033392;28;20057;-83
2023/11/16 05:06:20;;;;;;;3.40;1.13;;;9.50;99.90;;;;;;5032564;28;20525;-82
2023/11/16 05:08:46;;;;;;;6.32;1.40;;;9.50;99.90;;;;;;5032849;28;20033;-82
2023/11/16 05:11:20;;;;;;;8.68;1.73;;;9.60;99.90;;;;;;5032512;28;20068;-81
2023/11/16 05:13:46;;;;;;;3.20;1.20;;;9.60;99.90;;;;;;5033231;28;20053;-82
2023/11/16 05:16:12;;;;;;;5.55;1.30;;;9.60;99.90;;;;;;5032587;28;20032;-82
2023/11/16 05:18:38;;;;;;;7.57;1.50;;;9.70;99.90;;;;;;5033463;28;20374;-83
2023/11/16 05:21:04;;;;;;;10.25;1.83;;;9.60;99.90;;;;;;5033190;28;20025;-83
2023/11/16 05:23:30;;;;;;;5.50;1.60;;;9.70;99.90;;;;;;5032615;28;20022;-82
2023/11/16 05:25:57;;;;;;;4.50;1.67;;;9.60;99.90;;;;;;5034202;28;20378;-82
2023/11/16 05:28:22;;;;;;;8.88;1.80;;;9.60;99.90;;;;;;5032656;28;20032;-82
2023/11/16 05:30:50;;;;;;;5.47;2.20;;;9.60;99.90;;;;;;5033516;28;20029;-82
2023/11/16 05:33:16;;;;;;;8.25;2.10;;;9.60;99.90;;;;;;5032128;28;20053;-80
2023/11/16 05:35:43;;;;;;;12.10;3.60;;;9.60;99.90;;;;;;5035927;28;20378;-82
2023/11/16 05:38:10;;;;;;;8.05;2.80;;;9.60;99.90;;;;;;5036854;28;20064;-82
2023/11/16 05:40:36;;;;;;;11.27;3.05;;;9.60;99.90;;;;;;5037058;28;20033;-82
2023/11/16 05:43:03;;;;;;;11.43;2.70;;;9.50;99.90;;;;;;5036306;28;20028;-82
2023/11/16 05:45:29;;;;;;;8.25;2.20;;;9.50;99.90;;;;;;5036112;28;20120;-82
2023/11/16 05:47:56;;;;;;;14.70;2.95;;;9.40;99.90;;;;;;5036468;28;20025;-82
2023/11/16 05:50:24;;;;;;;8.48;2.20;;;9.40;99.90;;;;;;5035880;28;20094;-82
2023/11/16 05:52:50;;;;;;;5.72;2.17;;;9.40;99.90;;;;;;5036707;28;20056;-82
2023/11/16 05:55:17;;;;;;;10.45;2.97;;;9.40;99.90;;;;;;5035515;28;20074;-82
2023/11/16 05:57:44;;;;;;;7.45;2.22;;;9.40;99.90;;;;;;5036735;28;20550;-82
2023/11/16 06:00:11;;;;;;;8.63;2.00;;;9.40;99.90;;;;;;5036274;28;20115;-82
2023/11/16 06:02:40;;;;;;;6.57;2.00;;;9.40;99.90;;;;;;5035964;28;20621;-82
2023/11/16 06:05:08;;;;;;;11.48;2.60;;;9.40;99.90;;;;;;5036989;28;20036;-82
2023/11/16 06:07:34;;;;;;;8.25;2.35;;;9.40;99.90;;;;;;5035868;28;20036;-81
2023/11/16 06:10:01;;;;;;;8.90;2.35;;;9.30;99.90;;;;;;5036064;28;20040;-82
2023/11/16 06:12:26;;;;;;;6.35;2.10;;;9.30;99.90;;;;;;5035310;28;20045;-82
2023/11/16 06:14:55;;;;;;;8.68;2.40;;;9.30;99.90;;;;;;5035984;28;20072;-82
2023/11/16 06:17:21;;;;;;;11.02;2.75;;;9.20;99.90;;;;;;5035047;28;20032;-82
2023/11/16 06:19:47;;;;;;;6.82;1.95;;;9.20;99.90;;;;;;5036714;28;20080;-82
2023/11/16 06:22:14;;;;;;;4.43;1.80;;;9.20;99.90;;;;;;5036720;28;20450;-82
2023/11/16 06:24:40;;;;;;;8.00;1.90;;;9.20;99.90;;;;;;5036158;28;20425;-84
2023/11/16 06:27:05;;;;;;;7.95;1.67;;;9.10;99.90;;;;;;5035934;28;20091;-84
2023/11/16 06:29:31;;;;;;;3.45;1.65;;;9.10;99.90;;;;;;5035219;28;20121;-83
2023/11/16 06:31:57;;;;;;;6.13;2.03;;;9.00;99.90;;;;;;5035941;28;20116;-84
2023/11/16 06:34:23;;;;;;;6.75;1.90;;;9.00;99.90;;;;;;5052379;28;20072;-84
2023/11/16 06:36:49;;;;;;;8.13;1.58;;;9.00;99.90;;;;;;5039164;28;20036;-82
2023/11/16 06:39:15;;;;;;;6.22;1.80;;;9.00;99.90;;;;;;5038650;28;20033;-82
2023/11/16 06:41:41;;;;;;;2.67;1.20;;;9.00;99.90;;;;;;5038523;28;20028;-82
2023/11/16 06:44:07;;;;;;;3.30;1.40;;;9.00;99.90;;;;;;5038617;28;20110;-81
2023/11/16 06:46:34;;;;;;;12.80;1.77;;;9.00;99.90;;;;;;5037650;28;20029;-81
2023/11/16 06:49:02;;;;;;;6.50;1.63;;;9.00;99.90;;;;;;5038568;28;20056;-82
2023/11/16 06:51:28;;;;;;;5.30;2.15;;;9.00;99.90;;;;;;5055409;28;20052;-82
2023/11/16 06:53:53;;;;;;;5.45;2.00;;;9.10;99.90;;;;;;5056176;28;20021;-81
2023/11/16 06:56:19;;;;;;;9.43;2.33;;;9.20;99.90;;;;;;5037831;28;20056;-82
2023/11/16 06:58:45;;;;;;;5.97;1.80;;;9.20;99.90;;;;;;5038475;28;20033;-82
2023/11/16 07:01:11;;;;;;;4.00;1.55;;;9.20;99.90;;;;;;5038434;28;20070;-82
2023/11/16 07:03:36;;;;;;;5.25;1.50;;;9.30;99.90;;;;;;5037894;28;20251;-82
2023/11/16 07:06:02;;;;;;;5.72;1.95;;;9.30;99.90;;;;;;5055889;28;20025;-82
2023/11/16 07:08:28;;;;;;;4.60;1.42;;;9.20;99.90;;;;;;5055386;28;20036;-82
2023/11/16 07:10:53;;;;;;;4.75;1.58;;;9.20;99.90;;;;;;5038412;28;20025;-81
2023/11/16 07:13:22;;;;;;;4.75;1.60;;;9.30;99.90;;;;;;5037856;28;20021;-83
2023/11/16 07:15:49;;;;;;;8.43;1.60;;;9.30;99.90;;;;;;5060854;28;20024;-83
2023/11/16 07:18:21;;;;;;;4.78;1.58;;;9.30;99.90;;;;;;5058526;28;20119;-82
2023/11/16 07:20:47;;;;;;;6.07;2.00;;;9.30;99.90;;;;;;5058296;28;20119;-82
2023/11/16 07:23:14;;;;;;;4.95;1.58;;;9.40;99.90;;;;;;5058404;28;20060;-82
2023/11/16 07:25:39;;;;;;;5.47;1.80;;;9.40;99.90;;;;;;5057254;28;20029;-82
2023/11/16 07:28:05;;;;;;;5.97;1.80;;;9.50;99.90;;;;;;5057964;28;20029;-82
2023/11/16 07:30:32;;;;;;;5.25;1.58;;;9.50;99.90;;;;;;5057318;28;20504;-82
2023/11/16 07:33:03;;;;;;;4.60;1.80;;;9.50;99.90;;;;;;5057383;28;20072;-82
2023/11/16 07:35:29;;;;;;;5.03;1.65;;;9.50;99.90;;;;;;5057194;28;20074;-82
2023/11/16 07:37:54;;;;;;;4.63;1.63;;;9.50;99.90;;;;;;5057755;28;20028;-82
2023/11/16 07:40:20;;;;;;;6.30;1.67;;;9.50;99.90;;;;;;5057286;28;20035;-83
2023/11/16 07:42:47;;;;;;;9.27;2.10;;;9.50;99.90;;;;;;5057421;28;20533;-82
2023/11/16 07:45:13;;;;;;;6.60;1.80;;;9.50;99.90;;;;;;5075424;28;20378;-83
2023/11/16 07:47:41;;;;;;;7.28;2.10;;;9.50;99.90;;;;;;5074301;28;20028;-83
2023/11/16 07:50:10;;;;;;;7.78;1.63;;;9.50;99.90;;;;;;5057146;28;20087;-83
2023/11/16 07:52:44;;;;;;;4.20;1.35;;;9.50;99.90;;;;;;5056942;28;20131;-83
2023/11/16 07:55:19;;;;;;;3.53;1.50;;;9.50;99.90;;;;;;5075116;28;20028;-83
2023/11/16 07:57:49;;;;;;;7.20;1.70;;;9.50;99.90;;;;;;5056231;28;20025;-83
2023/11/16 08:00:22;;;;;;;6.72;1.85;;;9.50;99.90;;;;;;5057029;28;20135;-83
2023/11/16 08:05:33;;;;;;;7.47;2.00;;;9.70;99.90;;;;;;5074518;28;20042;-84
2023/11/16 08:08:03;;;;;;;3.65;1.42;;;9.70;99.90;;;;;;5074878;28;20052;-84
2023/11/16 08:10:28;;;;;;;5.88;1.45;;;9.70;99.90;;;;;;5056606;28;20037;-82
2023/11/16 08:12:54;;;;;;;8.68;2.33;;;9.70;99.90;;;;;;5057402;28;20025;-84
2023/11/16 08:15:25;;;;;;;5.75;1.98;;;9.80;99.90;;;;;;5057058;28;20461;-83
2023/11/16 08:17:54;;;;;;;6.80;1.85;;;9.80;99.90;;;;;;5057341;28;20453;-83
2023/11/16 08:20:22;;;;;;;12.30;1.77;;;9.80;99.90;;;;;;5056673;28;20040;-83
2023/11/16 08:22:51;;;;;;;8.13;2.03;;;9.80;99.90;;;;;;5056608;28;20029;-83
2023/11/16 08:25:24;;;;;;;10.63;1.90;;;9.80;99.90;;;;;;5056600;28;20429;-85
2023/11/16 08:27:51;;;;;;;6.32;2.08;;;9.90;99.90;;;;;;5056453;28;20028;-83
2023/11/16 08:30:18;;;;;;;7.75;1.85;;;9.90;99.90;;;;;;5074067;28;20094;-83
2023/11/16 08:32:45;;;;;;;7.88;1.85;;;9.90;99.90;;;;;;5055949;28;20084;-83
2023/11/16 08:35:13;;;;;;;7.95;2.08;;;10.00;99.90;;;;;;5056155;28;20036;-84
2023/11/16 08:37:39;;;;;;;8.23;2.25;;;10.10;99.90;;;;;;5056071;28;20027;-83
2023/11/16 08:40:06;;;;;;;9.43;2.40;;;10.10;99.90;;;;;;5056548;28;20035;-84
2023/11/16 08:42:41;;;;;;;5.45;1.50;;;10.10;99.90;;;;;;5073680;28;20025;-83
2023/11/16 08:45:20;;;;;;;11.93;1.75;;;10.20;99.90;;;;;;5056627;28;20035;-84
2023/11/16 08:47:47;;;;;;;7.85;1.83;;;10.10;99.90;;;;;;5056220;28;20032;-84
2023/11/16 08:50:16;;;;;;;5.82;1.90;;;10.10;99.90;;;;;;5074139;28;20034;-84
2023/11/16 08:52:47;;;;;;;5.28;1.60;;;10.20;99.90;;;;;;5056071;28;20024;-83
2023/11/16 08:55:13;;;;;;;8.10;2.35;;;10.10;99.90;;;;;;5056479;28;20025;-84
2023/11/16 08:57:41;;;;;;;11.50;2.20;;;10.10;99.90;;;;;;5055672;28;20032;-83
2023/11/16 09:02:54;;;;;;;8.07;1.98;;;10.20;99.90;;;;;;5074407;28;20079;-82
2023/11/16 09:05:21;;;;;;;8.40;2.42;;;10.20;99.90;;;;;;5056467;28;20063;-83
2023/11/16 09:07:48;;;;;;;4.82;1.52;;;10.20;99.90;;;;;;5056127;28;20484;-83
2023/11/16 09:10:14;;;;;;;7.97;1.48;;;10.30;99.90;;;;;;5058413;28;20434;-84
2023/11/16 09:12:45;;;;;;;7.97;2.00;;;10.30;99.90;;;;;;5060263;28;20048;-83
2023/11/16 09:15:11;;;;;;;9.27;1.40;;;10.30;99.90;;;;;;5060370;28;20465;-84
2023/11/16 09:17:41;;;;;;;5.10;1.35;;;10.40;99.90;;;;;;5077572;28;20052;-82
2023/11/16 09:20:10;;;;;;;4.00;1.35;;;10.40;99.90;;;;;;5059706;28;20086;-83
2023/11/16 09:22:49;;;;;;;6.15;1.55;;;10.40;99.90;;;;;;5059724;28;20063;-83
2023/11/16 09:25:18;;;;;;;6.45;1.55;;;10.50;99.90;;;;;;5059959;28;20113;-83
2023/11/16 09:27:50;;;;;;;6.22;1.73;;;10.50;99.90;;;;;;5059391;28;20044;-83
2023/11/16 09:30:17;;;;;;;;;;;10.50;99.90;;;;;;5061047;28;20056;-83
2023/11/16 09:32:43;;;;;;;5.28;1.55;;;10.60;99.90;;;;;;5059187;28;19912;-83
2023/11/16 09:35:15;;;;;;;6.78;1.48;;;10.50;99.90;;;;;;5058285;28;20020;-83
2023/11/16 09:37:45;;;;;;;4.18;1.67;;;10.50;99.90;;;;;;5049848;28;20020;-83
2023/11/16 09:40:14;;;;;;;5.03;1.75;;;10.50;99.90;;;;;;5049590;28;20024;-83
2023/11/16 09:42:43;;;;;;;7.15;1.67;;;10.50;99.90;;;;;;5047676;28;20028;-83
2023/11/16 09:45:09;;;;;;;9.20;1.55;;;10.50;99.90;;;;;;5048319;28;20524;-82
2023/11/16 09:47:42;;;;;;;5.43;1.73;;;10.50;99.90;;;;;;5068574;28;20017;-83
2023/11/16 09:50:08;;;;;;;5.55;1.50;;;10.60;99.90;;;;;;5059457;28;20058;-83
2023/11/16 09:52:38;;;;;;;9.73;2.03;;;10.60;99.90;;;;;;5058342;28;20375;-83
2023/11/16 09:55:09;;;;;;;5.82;1.63;;;10.60;99.90;;;;;;5059182;28;20032;-83
2023/11/16 09:57:40;;;;;;;6.72;2.17;;;10.50;99.90;;;;;;5053505;28;20347;-83
2023/11/16 10:00:18;;;;;;;18.65;2.45;;;10.50;99.90;;;;;;5049552;28;20103;-87
2023/11/16 10:02:53;;;;;;;5.45;1.48;;;10.60;99.90;;;;;;5038692;28;20025;-83
2023/11/16 10:05:22;;;;;;;9.25;2.08;;;10.60;99.90;;;;;;5047581;28;20021;-85
2023/11/16 10:07:51;;;;;;;3.85;1.50;;;10.50;99.90;;;;;;5038488;28;20048;-85
2023/11/16 10:10:18;;;;;;;6.10;1.70;;;10.50;99.90;;;;;;5055189;28;20036;-86
2023/11/16 10:12:50;;;;;;;7.20;1.40;;;10.60;99.90;;;;;;5044039;28;20016;-84
2023/11/16 10:15:20;;;;;;;12.00;1.90;;;10.50;99.90;;;;;;5049728;28;20083;-83
2023/11/16 10:17:49;;;;;;;7.90;1.90;;;10.60;99.90;;;;;;5061955;28;20588;-84
2023/11/16 10:20:20;;;;;;;12.27;2.97;;;10.60;99.90;;;;;;5040511;28;20029;-84
2023/11/16 10:22:47;;;;;;;7.97;1.95;;;10.60;99.90;;;;;;5054664;28;20028;-82
2023/11/16 10:25:14;;;;;;;5.95;2.35;;;10.60;99.90;;;;;;5047901;28;20493;-82
2023/11/16 10:27:43;;;;;;;6.55;1.80;;;10.50;99.90;;;;;;5068083;28;20034;-82
2023/11/16 10:30:15;;;;;;;6.82;1.70;;;10.60;99.90;;;;;;5049682;28;20028;-82
2023/11/16 10:32:46;;;;;;;;;;;10.60;99.90;;;;;;5050622;28;20049;-82
2023/11/16 10:35:17;;;;;;;5.47;1.50;;;10.60;99.90;;;;;;5047897;28;19923;-86
2023/11/16 10:37:46;;;;;;;5.03;1.58;;;10.60;99.90;;;;;;5062371;28;20082;-85
2023/11/16 10:40:12;;;;;;;7.38;1.70;;;10.60;99.90;;;;;;5052428;28;20028;-84
2023/11/16 10:42:41;;;;;;;5.10;1.80;;;10.60;99.90;;;;;;5058129;28;20032;-83
2023/11/16 10:45:12;;;;;;;5.65;1.25;;;10.50;99.90;;;;;;5058361;28;20047;-85
2023/11/16 10:47:44;;;;;;;10.90;1.67;;;10.50;99.90;;;;;;5057893;28;20520;-87
2023/11/16 10:50:17;;;;;;;5.88;1.20;;;10.50;99.90;;;;;;5041758;28;20127;-86
2023/11/16 10:52:47;;;;;;;6.47;1.92;;;10.60;99.90;;;;;;5054046;28;20024;-86
2023/11/16 10:55:19;;;;;;;3.97;1.65;;;10.50;99.90;;;;;;5047341;28;20024;-87
2023/11/16 10:57:48;;;;;;;4.32;1.52;;;10.50;99.90;;;;;;5074992;28;20508;-85
2023/11/16 11:00:18;;;;;;;5.40;1.83;;;10.50;99.90;;;;;;5060684;28;20043;-86
2023/11/16 11:02:46;;;;;;;4.32;1.70;;;10.50;99.90;;;;;;5055430;28;20028;-87
2023/11/16 11:05:15;;;;;;;6.63;2.15;;;10.60;99.90;;;;;;5054889;28;20119;-87
2023/11/16 11:07:48;;;;;;;6.80;1.92;;;10.50;99.90;;;;;;5057427;28;20167;-88
2023/11/16 11:10:14;;;;;;;4.85;1.80;;;10.50;99.90;;;;;;5056554;28;20492;-84
2023/11/16 11:12:45;;;;;;;6.28;1.35;;;10.60;99.90;;;;;;5042606;28;20461;-85
2023/11/16 11:15:22;;;;;;;6.65;1.40;;;10.70;99.90;;;;;;5048317;28;20024;-84
2023/11/16 11:17:53;;;;;;;4.50;1.48;;;10.70;99.90;;;;;;5051793;28;20028;-86
2023/11/16 11:20:30;;;;;;;4.18;1.20;;;10.80;99.90;;;;;;5041027;28;20449;-91
2023/11/16 11:23:07;;;;;;;3.80;1.17;;;10.80;99.90;;;;;;5068433;28;20477;-90
2023/11/16 11:25:39;;;;;;;6.30;1.20;;;10.90;99.90;;;;;;5049446;28;20386;-90
2023/11/16 11:28:15;;;;;;;5.10;1.52;;;10.90;99.90;;;;;;5047044;28;20524;-87
2023/11/16 11:30:54;;;;;;;8.32;1.50;;;11.00;99.90;;;;;;5074655;28;20032;-88
2023/11/16 11:33:34;;;;;;;5.13;1.83;;;11.00;99.90;;;;;;5046142;28;20103;-88
2023/11/16 11:36:00;;;;;;;4.90;1.63;;;11.10;99.90;;;;;;5053814;28;20458;-87
2023/11/16 11:38:30;;;;;;;9.20;2.05;;;11.00;99.90;;;;;;5040590;28;20023;-88
2023/11/16 11:41:06;;;;;;;2.47;1.17;;;11.00;99.90;;;;;;5053185;28;20020;-82
2023/11/16 11:43:33;;;;;;;3.35;1.40;;;11.00;99.90;;;;;;5056514;28;20470;-85
2023/11/16 11:45:59;;;;;;;3.92;1.38;;;11.00;99.90;;;;;;5041551;28;20115;-85
2023/11/16 11:48:26;;;;;;;6.63;1.63;;;11.00;99.90;;;;;;5053519;28;20413;-85
2023/11/16 11:50:57;;;;;;;4.80;1.45;;;11.00;99.90;;;;;;5061915;28;20021;-84
2023/11/16 11:53:32;;;;;;;5.65;1.50;;;11.00;99.90;;;;;;5053577;28;20025;-84
2023/11/16 11:56:08;;;;;;;3.05;1.38;;;10.90;99.90;;;;;;5041262;28;20035;-85
2023/11/16 11:58:37;;;;;;;4.55;1.25;;;10.90;99.90;;;;;;5036381;28;20108;-84
2023/11/16 12:01:04;;;;;;;3.55;1.25;;;10.90;99.90;;;;;;5044706;28;20082;-83
2023/11/16 12:03:30;;;;;;;4.68;1.42;;;10.90;99.90;;;;;;5073164;28;20028;-87
2023/11/16 12:06:02;;;;;;;3.72;1.20;;;11.00;99.90;;;;;;5040578;28;20025;-85
2023/11/16 12:08:39;;;;;;;6.65;1.50;;;11.00;99.90;;;;;;5055714;28;20385;-86
2023/11/16 12:11:09;;;;;;;5.43;1.60;;;11.00;99.90;;;;;;5047804;28;20052;-85
2023/11/16 12:13:36;;;;;;;6.57;1.38;;;10.90;99.90;;;;;;5048624;28;20033;-85
2023/11/16 12:16:06;;;;;;;5.00;1.30;;;10.90;99.90;;;;;;5040473;28;20033;-84
2023/11/16 12:18:37;;;;;;;3.08;1.52;;;10.90;99.90;;;;;;5039694;28;20065;-85
2023/11/16 12:21:09;;;;;;;5.70;1.48;;;10.90;99.90;;;;;;5073964;28;20488;-84
2023/11/16 12:23:36;;;;;;;6.25;1.70;;;10.90;99.90;;;;;;5060895;28;20025;-84
2023/11/16 12:26:07;;;;;;;10.98;1.98;;;10.80;99.90;;;;;;5052213;28;20032;-84
2023/11/16 12:28:33;;;;;;;4.25;1.50;;;10.80;99.90;;;;;;5045675;28;20040;-84
2023/11/16 12:30:59;;;;;;;6.95;1.80;;;10.80;99.90;;;;;;5056054;28;20072;-84
2023/11/16 12:33:25;;;;;;;5.82;2.05;;;10.70;99.90;;;;;;5052231;28;20041;-84
2023/11/16 12:35:51;;;;;;;4.72;1.60;;;10.70;99.90;;;;;;5052748;28;20021;-83
2023/11/16 12:38:20;;;;;;;4.28;1.98;;;10.70;99.90;;;;;;5036865;28;20029;-90
2023/11/16 12:40:45;;;;;;;5.57;1.58;;;10.80;99.90;;;;;;5046119;28;20022;-87
2023/11/16 12:43:11;;;;;;;5.75;1.90;;;10.80;99.90;;;;;;5042112;28;20017;-87
2023/11/16 12:45:37;;;;;;;6.13;1.67;;;10.80;99.90;;;;;;5038493;28;20057;-88
2023/11/16 12:48:06;;;;;;;5.35;1.90;;;10.80;99.90;;;;;;5036929;28;20120;-82
2023/11/16 12:50:32;;;;;;;4.40;1.77;;;10.90;99.90;;;;;;5042086;28;20109;-83
2023/11/16 12:52:58;;;;;;;5.32;1.75;;;10.90;99.90;;;;;;5040540;28;20028;-83
2023/11/16 12:55:24;;;;;;;7.68;1.65;;;10.90;99.90;;;;;;5045306;28;20025;-82
2023/11/16 12:57:50;;;;;;;5.78;1.80;;;10.90;99.90;;;;;;5044861;28;20029;-82
2023/11/16 13:00:17;;;;;;;4.57;1.88;;;10.90;99.90;;;;;;5046508;28;20112;-83